sensor_id;sensor_type;location;lat;lon;timestamp;P1;durP1;ratioP1;P2;durP2;ratioP2
70414;SDS011;57837;52.064;113.478;2023-01-15T00:01:00;2.45;;;2.28;;
70414;SDS011;57837;52.064;113.478;2023-01-15T00:04:05;11.70;;;4.43;;
70414;SDS011;57837;52.064;113.478;2023-01-15T00:07:09;16.67;;;8.43;;
70414;SDS011;57837;52.064;113.478;2023-01-15T00:10:13;18.90;;;5.60;;
70414;SDS011;57837;52.064;113.478;2023-01-15T00:13:17;33.28;;;9.88;;
70414;SDS011;57837;52.064;113.478;2023-01-15T00:16:22;8.70;;;5.72;;
70414;SDS011;57837;52.064;113.478;2023-01-15T00:19:26;5.10;;;4.07;;
70414;SDS011;57837;52.064;113.478;2023-01-15T00:22:30;4.90;;;3.53;;
70414;SDS011;57837;52.064;113.478;2023-01-15T00:25:34;2.78;;;2.38;;
70414;SDS011;57837;52.064;113.478;2023-01-15T00:28:56;6.07;;;4.03;;
70414;SDS011;57837;52.064;113.478;2023-01-15T00:32:01;23.05;;;15.98;;
70414;SDS011;57837;52.064;113.478;2023-01-15T00:35:11;13.00;;;6.55;;
70414;SDS011;57837;52.064;113.478;2023-01-15T00:38:16;12.25;;;8.30;;
70414;SDS011;57837;52.064;113.478;2023-01-15T00:41:23;8.53;;;7.03;;
70414;SDS011;57837;52.064;113.478;2023-01-15T00:44:26;9.75;;;8.68;;
70414;SDS011;57837;52.064;113.478;2023-01-15T00:47:30;52.92;;;20.08;;
70414;SDS011;57837;52.064;113.478;2023-01-15T00:50:34;22.70;;;10.33;;
70414;SDS011;57837;52.064;113.478;2023-01-15T00:53:39;28.92;;;14.20;;
70414;SDS011;57837;52.064;113.478;2023-01-15T00:56:43;34.78;;;11.98;;
70414;SDS011;57837;52.064;113.478;2023-01-15T00:59:47;44.88;;;20.17;;
70414;SDS011;57837;52.064;113.478;2023-01-15T01:02:51;27.10;;;11.13;;
70414;SDS011;57837;52.064;113.478;2023-01-15T01:05:59;11.90;;;8.52;;
70414;SDS011;57837;52.064;113.478;2023-01-15T01:09:06;53.08;;;22.67;;
70414;SDS011;57837;52.064;113.478;2023-01-15T01:12:10;29.97;;;9.20;;
70414;SDS011;57837;52.064;113.478;2023-01-15T01:15:14;11.50;;;7.45;;
70414;SDS011;57837;52.064;113.478;2023-01-15T01:18:18;31.13;;;13.50;;
70414;SDS011;57837;52.064;113.478;2023-01-15T01:21:22;7.13;;;4.33;;
70414;SDS011;57837;52.064;113.478;2023-01-15T01:24:26;32.08;;;19.73;;
70414;SDS011;57837;52.064;113.478;2023-01-15T01:27:32;9.80;;;6.05;;
70414;SDS011;57837;52.064;113.478;2023-01-15T01:30:39;11.20;;;7.25;;
70414;SDS011;57837;52.064;113.478;2023-01-15T01:33:43;9.95;;;4.07;;
70414;SDS011;57837;52.064;113.478;2023-01-15T01:36:50;23.60;;;14.23;;
70414;SDS011;57837;52.064;113.478;2023-01-15T01:39:53;21.27;;;7.22;;
70414;SDS011;57837;52.064;113.478;2023-01-15T01:42:58;12.90;;;7.30;;
70414;SDS011;57837;52.064;113.478;2023-01-15T01:46:02;6.85;;;5.45;;
70414;SDS011;57837;52.064;113.478;2023-01-15T01:49:07;7.13;;;6.05;;
70414;SDS011;57837;52.064;113.478;2023-01-15T01:52:15;9.87;;;4.90;;
70414;SDS011;57837;52.064;113.478;2023-01-15T01:55:24;30.25;;;13.20;;
70414;SDS011;57837;52.064;113.478;2023-01-15T01:58:30;28.38;;;16.98;;
70414;SDS011;57837;52.064;113.478;2023-01-15T02:01:34;28.40;;;11.95;;
70414;SDS011;57837;52.064;113.478;2023-01-15T02:04:38;18.10;;;12.25;;
70414;SDS011;57837;52.064;113.478;2023-01-15T02:07:42;21.77;;;9.75;;
70414;SDS011;57837;52.064;113.478;2023-01-15T02:10:47;24.42;;;11.13;;
70414;SDS011;57837;52.064;113.478;2023-01-15T02:14:06;53.33;;;26.13;;
70414;SDS011;57837;52.064;113.478;2023-01-15T02:17:24;16.95;;;9.38;;
70414;SDS011;57837;52.064;113.478;2023-01-15T02:20:47;46.38;;;27.35;;
70414;SDS011;57837;52.064;113.478;2023-01-15T02:23:59;18.57;;;13.43;;
70414;SDS011;57837;52.064;113.478;2023-01-15T02:27:20;105.72;;;38.05;;
70414;SDS011;57837;52.064;113.478;2023-01-15T02:30:30;47.45;;;20.65;;
70414;SDS011;57837;52.064;113.478;2023-01-15T02:33:38;32.92;;;19.40;;
70414;SDS011;57837;52.064;113.478;2023-01-15T02:36:55;30.15;;;18.95;;
70414;SDS011;57837;52.064;113.478;2023-01-15T02:40:04;64.72;;;26.95;;
70414;SDS011;57837;52.064;113.478;2023-01-15T02:43:09;14.85;;;8.80;;
70414;SDS011;57837;52.064;113.478;2023-01-15T02:46:18;28.43;;;13.70;;
70414;SDS011;57837;52.064;113.478;2023-01-15T02:49:27;44.13;;;17.02;;
70414;SDS011;57837;52.064;113.478;2023-01-15T02:52:36;15.25;;;6.07;;
70414;SDS011;57837;52.064;113.478;2023-01-15T02:55:44;21.33;;;10.73;;
70414;SDS011;57837;52.064;113.478;2023-01-15T02:58:55;51.13;;;18.17;;
70414;SDS011;57837;52.064;113.478;2023-01-15T03:02:05;32.80;;;17.00;;
70414;SDS011;57837;52.064;113.478;2023-01-15T03:05:17;13.75;;;7.32;;
70414;SDS011;57837;52.064;113.478;2023-01-15T03:08:27;56.10;;;20.95;;
70414;SDS011;57837;52.064;113.478;2023-01-15T03:11:32;33.03;;;13.88;;
70414;SDS011;57837;52.064;113.478;2023-01-15T03:14:43;18.70;;;7.90;;
70414;SDS011;57837;52.064;113.478;2023-01-15T03:18:01;25.83;;;12.13;;
70414;SDS011;57837;52.064;113.478;2023-01-15T03:21:08;45.30;;;17.70;;
70414;SDS011;57837;52.064;113.478;2023-01-15T03:24:58;7.22;;;3.72;;
70414;SDS011;57837;52.064;113.478;2023-01-15T03:27:46;32.50;;;13.50;;
70414;SDS011;57837;52.064;113.478;2023-01-15T03:30:51;34.17;;;14.43;;
70414;SDS011;57837;52.064;113.478;2023-01-15T03:33:54;32.67;;;13.50;;
70414;SDS011;57837;52.064;113.478;2023-01-15T03:36:58;53.63;;;19.10;;
70414;SDS011;57837;52.064;113.478;2023-01-15T03:40:02;32.63;;;14.60;;
70414;SDS011;57837;52.064;113.478;2023-01-15T03:43:08;40.08;;;18.75;;
70414;SDS011;57837;52.064;113.478;2023-01-15T03:56:41;31.52;;;10.70;;
70414;SDS011;57837;52.064;113.478;2023-01-15T04:00:00;34.77;;;14.23;;
70414;SDS011;57837;52.064;113.478;2023-01-15T04:03:15;37.38;;;13.50;;
70414;SDS011;57837;52.064;113.478;2023-01-15T04:06:22;34.50;;;11.18;;
70414;SDS011;57837;52.064;113.478;2023-01-15T04:09:27;8.90;;;4.68;;
70414;SDS011;57837;52.064;113.478;2023-01-15T04:12:32;20.95;;;9.30;;
70414;SDS011;57837;52.064;113.478;2023-01-15T04:15:40;44.72;;;17.20;;
70414;SDS011;57837;52.064;113.478;2023-01-15T04:18:43;19.50;;;6.97;;
70414;SDS011;57837;52.064;113.478;2023-01-15T04:21:47;15.53;;;5.13;;
70414;SDS011;57837;52.064;113.478;2023-01-15T04:24:51;33.83;;;11.52;;
70414;SDS011;57837;52.064;113.478;2023-01-15T04:27:57;6.80;;;4.22;;
70414;SDS011;57837;52.064;113.478;2023-01-15T04:31:00;8.37;;;3.90;;
70414;SDS011;57837;52.064;113.478;2023-01-15T04:34:03;3.17;;;1.75;;
70414;SDS011;57837;52.064;113.478;2023-01-15T04:37:07;11.90;;;4.20;;
70414;SDS011;57837;52.064;113.478;2023-01-15T04:40:14;7.22;;;3.10;;
70414;SDS011;57837;52.064;113.478;2023-01-15T04:43:35;27.55;;;8.23;;
70414;SDS011;57837;52.064;113.478;2023-01-15T04:46:57;9.25;;;3.95;;
70414;SDS011;57837;52.064;113.478;2023-01-15T04:50:01;6.43;;;2.58;;
70414;SDS011;57837;52.064;113.478;2023-01-15T04:53:05;21.20;;;5.50;;
70414;SDS011;57837;52.064;113.478;2023-01-15T04:56:09;16.42;;;5.60;;
70414;SDS011;57837;52.064;113.478;2023-01-15T04:59:13;14.90;;;5.88;;
70414;SDS011;57837;52.064;113.478;2023-01-15T05:02:17;10.83;;;5.20;;
70414;SDS011;57837;52.064;113.478;2023-01-15T05:05:21;14.02;;;5.50;;
70414;SDS011;57837;52.064;113.478;2023-01-15T05:08:25;30.10;;;8.90;;
70414;SDS011;57837;52.064;113.478;2023-01-15T05:11:30;11.90;;;6.53;;
70414;SDS011;57837;52.064;113.478;2023-01-15T05:14:37;23.85;;;9.07;;
70414;SDS011;57837;52.064;113.478;2023-01-15T05:17:41;16.55;;;5.72;;
70414;SDS011;57837;52.064;113.478;2023-01-15T05:20:44;24.48;;;8.55;;
70414;SDS011;57837;52.064;113.478;2023-01-15T05:23:48;16.23;;;5.03;;
70414;SDS011;57837;52.064;113.478;2023-01-15T05:26:52;16.52;;;6.97;;
70414;SDS011;57837;52.064;113.478;2023-01-15T05:29:57;5.88;;;3.63;;
70414;SDS011;57837;52.064;113.478;2023-01-15T05:33:00;13.03;;;6.40;;
70414;SDS011;57837;52.064;113.478;2023-01-15T05:36:04;22.77;;;8.30;;
70414;SDS011;57837;52.064;113.478;2023-01-15T05:39:09;6.47;;;3.72;;
70414;SDS011;57837;52.064;113.478;2023-01-15T05:42:12;10.70;;;5.05;;
70414;SDS011;57837;52.064;113.478;2023-01-15T05:45:15;6.25;;;3.05;;
70414;SDS011;57837;52.064;113.478;2023-01-15T05:48:18;14.95;;;3.33;;
70414;SDS011;57837;52.064;113.478;2023-01-15T05:51:21;8.65;;;2.47;;
70414;SDS011;57837;52.064;113.478;2023-01-15T05:54:27;7.43;;;3.17;;
70414;SDS011;57837;52.064;113.478;2023-01-15T05:57:32;18.27;;;5.93;;
70414;SDS011;57837;52.064;113.478;2023-01-15T06:00:36;19.02;;;7.22;;
70414;SDS011;57837;52.064;113.478;2023-01-15T06:03:39;11.90;;;5.43;;
70414;SDS011;57837;52.064;113.478;2023-01-15T06:06:44;8.40;;;2.92;;
70414;SDS011;57837;52.064;113.478;2023-01-15T06:09:47;15.48;;;6.03;;
70414;SDS011;57837;52.064;113.478;2023-01-15T06:12:51;13.52;;;4.07;;
70414;SDS011;57837;52.064;113.478;2023-01-15T06:15:54;12.15;;;3.58;;
70414;SDS011;57837;52.064;113.478;2023-01-15T06:19:00;8.35;;;3.17;;
70414;SDS011;57837;52.064;113.478;2023-01-15T06:22:06;5.63;;;2.53;;
70414;SDS011;57837;52.064;113.478;2023-01-15T06:25:11;13.33;;;4.43;;
70414;SDS011;57837;52.064;113.478;2023-01-15T06:28:15;9.23;;;3.67;;
70414;SDS011;57837;52.064;113.478;2023-01-15T06:31:20;12.18;;;5.38;;
70414;SDS011;57837;52.064;113.478;2023-01-15T06:34:25;7.00;;;2.57;;
70414;SDS011;57837;52.064;113.478;2023-01-15T06:37:27;12.40;;;5.18;;
70414;SDS011;57837;52.064;113.478;2023-01-15T06:40:30;14.35;;;4.90;;
70414;SDS011;57837;52.064;113.478;2023-01-15T06:43:34;14.90;;;6.45;;
70414;SDS011;57837;52.064;113.478;2023-01-15T06:46:56;29.70;;;8.38;;
70414;SDS011;57837;52.064;113.478;2023-01-15T06:50:17;14.52;;;5.57;;
70414;SDS011;57837;52.064;113.478;2023-01-15T06:53:22;16.30;;;6.90;;
70414;SDS011;57837;52.064;113.478;2023-01-15T06:56:25;12.73;;;4.37;;
70414;SDS011;57837;52.064;113.478;2023-01-15T06:59:28;8.75;;;3.35;;
70414;SDS011;57837;52.064;113.478;2023-01-15T07:02:33;10.15;;;4.80;;
70414;SDS011;57837;52.064;113.478;2023-01-15T07:05:39;1.50;;;0.93;;
70414;SDS011;57837;52.064;113.478;2023-01-15T07:08:43;19.05;;;6.32;;
70414;SDS011;57837;52.064;113.478;2023-01-15T07:11:45;15.48;;;5.60;;
70414;SDS011;57837;52.064;113.478;2023-01-15T07:14:52;19.67;;;7.35;;
70414;SDS011;57837;52.064;113.478;2023-01-15T07:17:56;22.42;;;7.15;;
70414;SDS011;57837;52.064;113.478;2023-01-15T07:21:00;31.55;;;10.38;;
70414;SDS011;57837;52.064;113.478;2023-01-15T07:24:03;26.75;;;10.20;;
70414;SDS011;57837;52.064;113.478;2023-01-15T07:27:07;24.53;;;7.73;;
70414;SDS011;57837;52.064;113.478;2023-01-15T07:30:10;35.95;;;12.68;;
70414;SDS011;57837;52.064;113.478;2023-01-15T07:33:15;25.77;;;9.27;;
70414;SDS011;57837;52.064;113.478;2023-01-15T07:36:18;32.20;;;8.80;;
70414;SDS011;57837;52.064;113.478;2023-01-15T07:39:22;22.42;;;7.60;;
70414;SDS011;57837;52.064;113.478;2023-01-15T07:42:26;30.38;;;10.18;;
70414;SDS011;57837;52.064;113.478;2023-01-15T07:45:47;28.58;;;9.45;;
70414;SDS011;57837;52.064;113.478;2023-01-15T07:49:09;34.88;;;8.85;;
70414;SDS011;57837;52.064;113.478;2023-01-15T07:52:33;23.45;;;9.20;;
70414;SDS011;57837;52.064;113.478;2023-01-15T07:55:36;9.90;;;4.85;;
70414;SDS011;57837;52.064;113.478;2023-01-15T07:58:39;21.77;;;7.80;;
70414;SDS011;57837;52.064;113.478;2023-01-15T08:01:42;14.60;;;6.43;;
70414;SDS011;57837;52.064;113.478;2023-01-15T08:04:46;15.10;;;6.38;;
70414;SDS011;57837;52.064;113.478;2023-01-15T08:07:49;14.10;;;6.77;;
70414;SDS011;57837;52.064;113.478;2023-01-15T08:10:53;16.77;;;6.32;;
70414;SDS011;57837;52.064;113.478;2023-01-15T08:14:16;11.38;;;5.60;;
70414;SDS011;57837;52.064;113.478;2023-01-15T08:17:42;24.88;;;7.68;;
70414;SDS011;57837;52.064;113.478;2023-01-15T08:20:46;24.95;;;10.32;;
70414;SDS011;57837;52.064;113.478;2023-01-15T08:23:50;26.75;;;11.15;;
70414;SDS011;57837;52.064;113.478;2023-01-15T08:26:54;66.50;;;29.33;;
70414;SDS011;57837;52.064;113.478;2023-01-15T08:29:57;91.47;;;35.40;;
70414;SDS011;57837;52.064;113.478;2023-01-15T08:33:00;78.68;;;26.85;;
70414;SDS011;57837;52.064;113.478;2023-01-15T08:36:05;66.82;;;25.20;;
70414;SDS011;57837;52.064;113.478;2023-01-15T08:39:12;53.20;;;18.07;;
70414;SDS011;57837;52.064;113.478;2023-01-15T08:42:19;32.88;;;12.73;;
70414;SDS011;57837;52.064;113.478;2023-01-15T08:45:23;28.80;;;12.23;;
70414;SDS011;57837;52.064;113.478;2023-01-15T08:48:27;13.90;;;6.38;;
70414;SDS011;57837;52.064;113.478;2023-01-15T08:51:32;33.55;;;13.05;;
70414;SDS011;57837;52.064;113.478;2023-01-15T08:54:36;24.65;;;11.40;;
70414;SDS011;57837;52.064;113.478;2023-01-15T08:57:41;33.33;;;12.38;;
70414;SDS011;57837;52.064;113.478;2023-01-15T09:00:46;34.10;;;12.40;;
70414;SDS011;57837;52.064;113.478;2023-01-15T09:03:50;31.77;;;10.80;;
70414;SDS011;57837;52.064;113.478;2023-01-15T09:06:53;39.10;;;14.60;;
70414;SDS011;57837;52.064;113.478;2023-01-15T09:09:56;36.07;;;15.60;;
70414;SDS011;57837;52.064;113.478;2023-01-15T09:13:00;33.10;;;11.98;;
70414;SDS011;57837;52.064;113.478;2023-01-15T09:16:05;17.10;;;8.15;;
70414;SDS011;57837;52.064;113.478;2023-01-15T09:19:10;58.88;;;22.40;;
70414;SDS011;57837;52.064;113.478;2023-01-15T09:22:13;181.25;;;60.30;;
70414;SDS011;57837;52.064;113.478;2023-01-15T09:25:17;131.32;;;46.38;;
70414;SDS011;57837;52.064;113.478;2023-01-15T09:28:21;100.53;;;37.78;;
70414;SDS011;57837;52.064;113.478;2023-01-15T09:31:24;49.43;;;18.17;;
70414;SDS011;57837;52.064;113.478;2023-01-15T09:34:29;29.55;;;11.48;;
70414;SDS011;57837;52.064;113.478;2023-01-15T09:37:32;94.05;;;35.13;;
70414;SDS011;57837;52.064;113.478;2023-01-15T09:43:51;45.08;;;17.17;;
70414;SDS011;57837;52.064;113.478;2023-01-15T09:53:47;61.38;;;22.60;;
70414;SDS011;57837;52.064;113.478;2023-01-15T09:57:18;49.75;;;21.95;;
70414;SDS011;57837;52.064;113.478;2023-01-15T10:00:26;149.73;;;56.55;;
70414;SDS011;57837;52.064;113.478;2023-01-15T10:07:22;37.92;;;19.48;;
70414;SDS011;57837;52.064;113.478;2023-01-15T10:10:12;59.30;;;15.38;;
70414;SDS011;57837;52.064;113.478;2023-01-15T10:13:28;39.90;;;23.50;;
70414;SDS011;57837;52.064;113.478;2023-01-15T10:16:41;59.35;;;31.25;;
70414;SDS011;57837;52.064;113.478;2023-01-15T10:19:45;23.20;;;15.20;;
70414;SDS011;57837;52.064;113.478;2023-01-15T10:26:04;102.53;;;52.92;;
70414;SDS011;57837;52.064;113.478;2023-01-15T10:36:06;121.60;;;59.43;;
70414;SDS011;57837;52.064;113.478;2023-01-15T10:48:52;84.95;;;38.15;;
70414;SDS011;57837;52.064;113.478;2023-01-15T10:52:35;53.92;;;27.42;;
70414;SDS011;57837;52.064;113.478;2023-01-15T10:55:45;60.17;;;25.95;;
70414;SDS011;57837;52.064;113.478;2023-01-15T10:59:37;31.88;;;13.93;;
70414;SDS011;57837;52.064;113.478;2023-01-15T11:05:45;18.88;;;11.55;;
70414;SDS011;57837;52.064;113.478;2023-01-15T11:08:50;49.57;;;23.60;;
70414;SDS011;57837;52.064;113.478;2023-01-15T11:12:19;51.33;;;22.35;;
70414;SDS011;57837;52.064;113.478;2023-01-15T11:15:25;19.95;;;8.98;;
70414;SDS011;57837;52.064;113.478;2023-01-15T11:18:48;57.33;;;32.50;;
70414;SDS011;57837;52.064;113.478;2023-01-15T11:22:18;25.00;;;13.18;;
70414;SDS011;57837;52.064;113.478;2023-01-15T11:25:26;34.60;;;19.15;;
70414;SDS011;57837;52.064;113.478;2023-01-15T11:28:35;43.42;;;18.35;;
70414;SDS011;57837;52.064;113.478;2023-01-15T11:31:45;48.67;;;24.25;;
70414;SDS011;57837;52.064;113.478;2023-01-15T11:34:54;37.38;;;20.98;;
70414;SDS011;57837;52.064;113.478;2023-01-15T11:38:10;13.20;;;10.30;;
70414;SDS011;57837;52.064;113.478;2023-01-15T11:41:31;34.87;;;16.57;;
70414;SDS011;57837;52.064;113.478;2023-01-15T11:44:55;11.40;;;10.13;;
70414;SDS011;57837;52.064;113.478;2023-01-15T11:48:18;21.73;;;11.52;;
70414;SDS011;57837;52.064;113.478;2023-01-15T11:51:42;23.37;;;11.50;;
70414;SDS011;57837;52.064;113.478;2023-01-15T11:54:51;24.05;;;12.48;;
70414;SDS011;57837;52.064;113.478;2023-01-15T11:57:57;18.33;;;11.63;;
70414;SDS011;57837;52.064;113.478;2023-01-15T12:01:03;28.08;;;10.65;;
70414;SDS011;57837;52.064;113.478;2023-01-15T12:04:29;38.50;;;14.48;;
70414;SDS011;57837;52.064;113.478;2023-01-15T12:07:33;31.75;;;18.95;;
70414;SDS011;57837;52.064;113.478;2023-01-15T12:10:59;31.38;;;15.68;;
70414;SDS011;57837;52.064;113.478;2023-01-15T12:21:05;51.95;;;25.35;;
70414;SDS011;57837;52.064;113.478;2023-01-15T12:34:18;71.50;;;32.67;;
70414;SDS011;57837;52.064;113.478;2023-01-15T12:37:27;80.78;;;34.88;;
70414;SDS011;57837;52.064;113.478;2023-01-15T12:40:50;46.65;;;25.63;;
70414;SDS011;57837;52.064;113.478;2023-01-15T12:44:01;64.32;;;25.45;;
70414;SDS011;57837;52.064;113.478;2023-01-15T12:47:24;29.83;;;16.13;;
70414;SDS011;57837;52.064;113.478;2023-01-15T12:50:48;27.40;;;15.98;;
70414;SDS011;57837;52.064;113.478;2023-01-15T12:53:56;21.42;;;12.73;;
70414;SDS011;57837;52.064;113.478;2023-01-15T13:03:44;82.25;;;33.08;;
70414;SDS011;57837;52.064;113.478;2023-01-15T13:06:55;70.47;;;31.75;;
70414;SDS011;57837;52.064;113.478;2023-01-15T13:10:11;135.68;;;58.55;;
70414;SDS011;57837;52.064;113.478;2023-01-15T13:13:22;144.57;;;54.45;;
70414;SDS011;57837;52.064;113.478;2023-01-15T13:20:13;240.53;;;105.40;;
70414;SDS011;57837;52.064;113.478;2023-01-15T13:36:25;203.10;;;89.97;;
70414;SDS011;57837;52.064;113.478;2023-01-15T13:39:49;156.55;;;83.90;;
70414;SDS011;57837;52.064;113.478;2023-01-15T13:42:55;108.18;;;56.22;;
70414;SDS011;57837;52.064;113.478;2023-01-15T13:45:58;187.68;;;96.38;;
70414;SDS011;57837;52.064;113.478;2023-01-15T13:49:05;105.13;;;60.10;;
70414;SDS011;57837;52.064;113.478;2023-01-15T13:52:30;177.77;;;77.93;;
70414;SDS011;57837;52.064;113.478;2023-01-15T13:55:38;170.70;;;69.03;;
70414;SDS011;57837;52.064;113.478;2023-01-15T13:58:53;224.73;;;90.03;;
70414;SDS011;57837;52.064;113.478;2023-01-15T14:01:59;129.20;;;63.37;;
70414;SDS011;57837;52.064;113.478;2023-01-15T14:08:40;130.30;;;59.95;;
70414;SDS011;57837;52.064;113.478;2023-01-15T14:25:14;173.10;;;78.07;;
70414;SDS011;57837;52.064;113.478;2023-01-15T14:28:33;207.38;;;89.97;;
70414;SDS011;57837;52.064;113.478;2023-01-15T14:35:11;137.20;;;55.80;;
70414;SDS011;57837;52.064;113.478;2023-01-15T14:38:19;75.15;;;46.42;;
70414;SDS011;57837;52.064;113.478;2023-01-15T14:41:26;35.97;;;31.25;;
70414;SDS011;57837;52.064;113.478;2023-01-15T14:44:35;113.30;;;42.08;;
70414;SDS011;57837;52.064;113.478;2023-01-15T14:50:46;81.13;;;41.90;;
70414;SDS011;57837;52.064;113.478;2023-01-15T14:53:54;69.03;;;35.13;;
70414;SDS011;57837;52.064;113.478;2023-01-15T14:57:00;112.73;;;68.93;;
70414;SDS011;57837;52.064;113.478;2023-01-15T15:00:05;107.00;;;45.25;;
70414;SDS011;57837;52.064;113.478;2023-01-15T15:03:12;68.15;;;34.55;;
70414;SDS011;57837;52.064;113.478;2023-01-15T15:06:19;121.57;;;43.50;;
70414;SDS011;57837;52.064;113.478;2023-01-15T15:09:28;69.43;;;38.88;;
70414;SDS011;57837;52.064;113.478;2023-01-15T15:15:47;87.13;;;47.45;;
70414;SDS011;57837;52.064;113.478;2023-01-15T15:22:14;90.32;;;43.75;;
70414;SDS011;57837;52.064;113.478;2023-01-15T15:25:24;105.32;;;36.58;;
70414;SDS011;57837;52.064;113.478;2023-01-15T15:28:31;118.10;;;44.53;;
70414;SDS011;57837;52.064;113.478;2023-01-15T15:31:35;160.55;;;61.38;;
70414;SDS011;57837;52.064;113.478;2023-01-15T15:34:49;152.20;;;66.03;;
70414;SDS011;57837;52.064;113.478;2023-01-15T15:37:54;222.00;;;78.17;;
70414;SDS011;57837;52.064;113.478;2023-01-15T15:41:00;129.30;;;50.55;;
70414;SDS011;57837;52.064;113.478;2023-01-15T15:44:13;136.00;;;52.33;;
70414;SDS011;57837;52.064;113.478;2023-01-15T15:47:41;233.85;;;79.47;;
70414;SDS011;57837;52.064;113.478;2023-01-15T15:51:03;121.00;;;55.20;;
70414;SDS011;57837;52.064;113.478;2023-01-15T15:57:19;186.65;;;75.70;;
70414;SDS011;57837;52.064;113.478;2023-01-15T16:00:28;152.03;;;65.20;;
70414;SDS011;57837;52.064;113.478;2023-01-15T16:03:35;252.35;;;76.55;;
70414;SDS011;57837;52.064;113.478;2023-01-15T16:06:38;192.38;;;88.57;;
70414;SDS011;57837;52.064;113.478;2023-01-15T16:09:45;181.27;;;68.33;;
70414;SDS011;57837;52.064;113.478;2023-01-15T16:12:51;294.17;;;103.78;;
70414;SDS011;57837;52.064;113.478;2023-01-15T16:15:57;268.02;;;87.50;;
70414;SDS011;57837;52.064;113.478;2023-01-15T16:19:02;187.45;;;76.35;;
70414;SDS011;57837;52.064;113.478;2023-01-15T16:22:06;199.65;;;72.82;;
70414;SDS011;57837;52.064;113.478;2023-01-15T16:25:21;167.93;;;62.83;;
70414;SDS011;57837;52.064;113.478;2023-01-15T16:28:38;142.75;;;66.80;;
70414;SDS011;57837;52.064;113.478;2023-01-15T16:31:46;226.83;;;82.37;;
70414;SDS011;57837;52.064;113.478;2023-01-15T16:35:06;112.28;;;47.35;;
70414;SDS011;57837;52.064;113.478;2023-01-15T16:38:19;124.72;;;64.47;;
70414;SDS011;57837;52.064;113.478;2023-01-15T16:41:24;167.20;;;69.97;;
70414;SDS011;57837;52.064;113.478;2023-01-15T16:48:10;163.98;;;63.47;;
70414;SDS011;57837;52.064;113.478;2023-01-15T16:51:32;185.57;;;75.75;;
70414;SDS011;57837;52.064;113.478;2023-01-15T16:57:40;129.60;;;50.33;;
70414;SDS011;57837;52.064;113.478;2023-01-15T17:00:45;120.38;;;55.83;;
70414;SDS011;57837;52.064;113.478;2023-01-15T17:03:51;122.70;;;56.00;;
70414;SDS011;57837;52.064;113.478;2023-01-15T17:06:57;160.85;;;59.72;;
70414;SDS011;57837;52.064;113.478;2023-01-15T17:10:01;130.55;;;50.17;;
70414;SDS011;57837;52.064;113.478;2023-01-15T17:13:15;136.40;;;52.20;;
70414;SDS011;57837;52.064;113.478;2023-01-15T17:16:22;92.43;;;46.45;;
70414;SDS011;57837;52.064;113.478;2023-01-15T17:19:26;104.10;;;47.60;;
70414;SDS011;57837;52.064;113.478;2023-01-15T17:22:30;103.38;;;49.88;;
70414;SDS011;57837;52.064;113.478;2023-01-15T17:25:35;105.95;;;42.08;;
70414;SDS011;57837;52.064;113.478;2023-01-15T17:28:39;133.75;;;49.33;;
70414;SDS011;57837;52.064;113.478;2023-01-15T17:31:43;126.40;;;52.28;;
70414;SDS011;57837;52.064;113.478;2023-01-15T17:34:48;63.87;;;25.00;;
70414;SDS011;57837;52.064;113.478;2023-01-15T17:37:50;120.82;;;48.95;;
70414;SDS011;57837;52.064;113.478;2023-01-15T17:40:57;111.32;;;52.60;;
70414;SDS011;57837;52.064;113.478;2023-01-15T17:44:01;108.20;;;55.50;;
70414;SDS011;57837;52.064;113.478;2023-01-15T17:47:06;146.35;;;54.75;;
70414;SDS011;57837;52.064;113.478;2023-01-15T17:50:10;195.73;;;72.57;;
70414;SDS011;57837;52.064;113.478;2023-01-15T17:53:14;131.07;;;56.90;;
70414;SDS011;57837;52.064;113.478;2023-01-15T17:56:18;144.45;;;51.13;;
70414;SDS011;57837;52.064;113.478;2023-01-15T17:59:55;84.95;;;38.60;;
70414;SDS011;57837;52.064;113.478;2023-01-15T18:03:17;108.25;;;51.50;;
70414;SDS011;57837;52.064;113.478;2023-01-15T18:06:44;153.00;;;39.77;;
70414;SDS011;57837;52.064;113.478;2023-01-15T18:09:49;197.10;;;79.35;;
70414;SDS011;57837;52.064;113.478;2023-01-15T18:12:54;112.32;;;49.63;;
70414;SDS011;57837;52.064;113.478;2023-01-15T18:15:57;104.23;;;49.73;;
70414;SDS011;57837;52.064;113.478;2023-01-15T18:19:00;128.30;;;52.90;;
70414;SDS011;57837;52.064;113.478;2023-01-15T18:22:03;99.43;;;45.25;;
70414;SDS011;57837;52.064;113.478;2023-01-15T18:25:06;65.22;;;35.00;;
70414;SDS011;57837;52.064;113.478;2023-01-15T18:28:12;58.38;;;24.65;;
70414;SDS011;57837;52.064;113.478;2023-01-15T18:31:16;43.95;;;32.90;;
70414;SDS011;57837;52.064;113.478;2023-01-15T18:34:19;88.57;;;32.70;;
70414;SDS011;57837;52.064;113.478;2023-01-15T18:37:23;75.03;;;29.00;;
70414;SDS011;57837;52.064;113.478;2023-01-15T18:40:26;78.60;;;31.73;;
70414;SDS011;57837;52.064;113.478;2023-01-15T18:43:32;57.72;;;30.75;;
70414;SDS011;57837;52.064;113.478;2023-01-15T18:46:55;107.63;;;47.93;;
70414;SDS011;57837;52.064;113.478;2023-01-15T18:50:00;54.88;;;26.50;;
70414;SDS011;57837;52.064;113.478;2023-01-15T18:53:03;67.75;;;24.42;;
70414;SDS011;57837;52.064;113.478;2023-01-15T18:56:07;115.70;;;43.92;;
70414;SDS011;57837;52.064;113.478;2023-01-15T18:59:12;131.73;;;49.95;;
70414;SDS011;57837;52.064;113.478;2023-01-15T19:02:17;142.80;;;46.75;;
70414;SDS011;57837;52.064;113.478;2023-01-15T19:05:22;118.70;;;42.97;;
70414;SDS011;57837;52.064;113.478;2023-01-15T19:08:26;67.87;;;35.50;;
70414;SDS011;57837;52.064;113.478;2023-01-15T19:11:29;93.15;;;34.72;;
70414;SDS011;57837;52.064;113.478;2023-01-15T19:14:33;83.25;;;30.58;;
70414;SDS011;57837;52.064;113.478;2023-01-15T19:17:55;53.20;;;30.87;;
70414;SDS011;57837;52.064;113.478;2023-01-15T19:21:16;96.40;;;35.03;;
70414;SDS011;57837;52.064;113.478;2023-01-15T19:24:21;39.28;;;25.05;;
70414;SDS011;57837;52.064;113.478;2023-01-15T19:27:24;58.78;;;26.90;;
70414;SDS011;57837;52.064;113.478;2023-01-15T19:30:27;22.33;;;18.10;;
70414;SDS011;57837;52.064;113.478;2023-01-15T19:33:32;50.90;;;29.23;;
70414;SDS011;57837;52.064;113.478;2023-01-15T19:36:36;40.17;;;21.05;;
70414;SDS011;57837;52.064;113.478;2023-01-15T19:39:39;58.77;;;19.17;;
70414;SDS011;57837;52.064;113.478;2023-01-15T19:42:42;29.27;;;14.98;;
70414;SDS011;57837;52.064;113.478;2023-01-15T19:46:06;41.15;;;22.75;;
70414;SDS011;57837;52.064;113.478;2023-01-15T19:49:30;50.20;;;23.57;;
70414;SDS011;57837;52.064;113.478;2023-01-15T19:52:55;59.78;;;23.17;;
70414;SDS011;57837;52.064;113.478;2023-01-15T19:55:58;56.95;;;21.65;;
70414;SDS011;57837;52.064;113.478;2023-01-15T19:59:01;96.13;;;39.25;;